sensor_id;sensor_type;location;lat;lon;timestamp;temperature;humidity
18287;DHT22;9269;50.838;12.094;2023-11-21T00:01:42;12.40;61.80
18287;DHT22;9269;50.838;12.094;2023-11-21T00:04:11;12.40;61.60
18287;DHT22;9269;50.838;12.094;2023-11-21T00:06:39;12.40;61.80
18287;DHT22;9269;50.838;12.094;2023-11-21T00:09:08;12.30;61.60
18287;DHT22;9269;50.838;12.094;2023-11-21T00:11:37;12.30;61.60
18287;DHT22;9269;50.838;12.094;2023-11-21T00:14:05;12.40;61.70
18287;DHT22;9269;50.838;12.094;2023-11-21T00:16:36;12.40;62.10
18287;DHT22;9269;50.838;12.094;2023-11-21T00:19:05;12.40;61.60
18287;DHT22;9269;50.838;12.094;2023-11-21T00:21:33;12.40;62.00
18287;DHT22;9269;50.838;12.094;2023-11-21T00:24:02;12.40;61.70
18287;DHT22;9269;50.838;12.094;2023-11-21T00:26:31;12.50;61.80
18287;DHT22;9269;50.838;12.094;2023-11-21T00:29:04;12.50;62.00
18287;DHT22;9269;50.838;12.094;2023-11-21T00:31:36;12.30;61.90
18287;DHT22;9269;50.838;12.094;2023-11-21T00:34:07;12.40;61.90
18287;DHT22;9269;50.838;12.094;2023-11-21T00:36:36;12.40;61.60
18287;DHT22;9269;50.838;12.094;2023-11-21T00:39:05;12.40;61.70
18287;DHT22;9269;50.838;12.094;2023-11-21T00:41:33;12.30;62.00
18287;DHT22;9269;50.838;12.094;2023-11-21T00:44:04;12.40;62.10
18287;DHT22;9269;50.838;12.094;2023-11-21T00:46:35;12.30;62.00
18287;DHT22;9269;50.838;12.094;2023-11-21T00:49:04;12.40;62.10
18287;DHT22;9269;50.838;12.094;2023-11-21T00:51:32;12.20;62.30
18287;DHT22;9269;50.838;12.094;2023-11-21T00:54:01;12.30;62.10
18287;DHT22;9269;50.838;12.094;2023-11-21T00:56:30;12.20;62.20
18287;DHT22;9269;50.838;12.094;2023-11-21T00:58:59;12.20;62.30
18287;DHT22;9269;50.838;12.094;2023-11-21T01:01:27;12.20;62.20
18287;DHT22;9269;50.838;12.094;2023-11-21T01:03:57;12.30;62.20
18287;DHT22;9269;50.838;12.094;2023-11-21T01:06:25;12.30;61.60
18287;DHT22;9269;50.838;12.094;2023-11-21T01:08:54;12.10;62.10
18287;DHT22;9269;50.838;12.094;2023-11-21T01:11:22;12.30;62.30
18287;DHT22;9269;50.838;12.094;2023-11-21T01:13:51;12.20;62.60
18287;DHT22;9269;50.838;12.094;2023-11-21T01:16:20;12.20;62.40
18287;DHT22;9269;50.838;12.094;2023-11-21T01:18:49;12.30;62.50
18287;DHT22;9269;50.838;12.094;2023-11-21T01:21:18;12.30;62.00
18287;DHT22;9269;50.838;12.094;2023-11-21T01:23:47;12.20;62.20
18287;DHT22;9269;50.838;12.094;2023-11-21T01:26:16;12.30;62.60
18287;DHT22;9269;50.838;12.094;2023-11-21T01:28:44;12.10;62.10
18287;DHT22;9269;50.838;12.094;2023-11-21T01:31:16;12.30;62.00
18287;DHT22;9269;50.838;12.094;2023-11-21T01:33:44;12.20;62.30
18287;DHT22;9269;50.838;12.094;2023-11-21T01:36:13;12.30;61.70
18287;DHT22;9269;50.838;12.094;2023-11-21T01:38:43;12.30;62.10
18287;DHT22;9269;50.838;12.094;2023-11-21T01:41:11;12.30;62.00
18287;DHT22;9269;50.838;12.094;2023-11-21T01:43:40;12.20;61.90
18287;DHT22;9269;50.838;12.094;2023-11-21T01:46:09;12.20;62.20
18287;DHT22;9269;50.838;12.094;2023-11-21T01:48:38;12.30;62.40
18287;DHT22;9269;50.838;12.094;2023-11-21T01:51:07;12.20;62.20
18287;DHT22;9269;50.838;12.094;2023-11-21T01:53:35;12.20;62.40
18287;DHT22;9269;50.838;12.094;2023-11-21T01:56:06;12.20;62.10
18287;DHT22;9269;50.838;12.094;2023-11-21T01:58:36;12.20;61.80
18287;DHT22;9269;50.838;12.094;2023-11-21T02:01:05;12.20;62.00
18287;DHT22;9269;50.838;12.094;2023-11-21T02:03:36;12.20;61.90
18287;DHT22;9269;50.838;12.094;2023-11-21T02:06:07;12.30;62.10
18287;DHT22;9269;50.838;12.094;2023-11-21T02:08:35;12.30;62.20
18287;DHT22;9269;50.838;12.094;2023-11-21T02:11:06;12.20;62.30
18287;DHT22;9269;50.838;12.094;2023-11-21T02:13:35;12.20;62.20
18287;DHT22;9269;50.838;12.094;2023-11-21T02:16:08;12.20;62.10
18287;DHT22;9269;50.838;12.094;2023-11-21T02:18:37;12.30;62.10
18287;DHT22;9269;50.838;12.094;2023-11-21T02:21:05;12.20;62.00
18287;DHT22;9269;50.838;12.094;2023-11-21T02:23:36;12.20;62.00
18287;DHT22;9269;50.838;12.094;2023-11-21T02:26:09;12.10;62.10
18287;DHT22;9269;50.838;12.094;2023-11-21T02:28:37;12.20;62.40
18287;DHT22;9269;50.838;12.094;2023-11-21T02:31:06;12.20;61.90
18287;DHT22;9269;50.838;12.094;2023-11-21T02:33:35;12.30;61.90
18287;DHT22;9269;50.838;12.094;2023-11-21T02:36:04;12.30;62.00
18287;DHT22;9269;50.838;12.094;2023-11-21T02:38:33;12.20;61.80
18287;DHT22;9269;50.838;12.094;2023-11-21T02:41:03;12.20;61.90
18287;DHT22;9269;50.838;12.094;2023-11-21T02:43:31;12.30;62.10
18287;DHT22;9269;50.838;12.094;2023-11-21T02:45:59;12.10;62.00
18287;DHT22;9269;50.838;12.094;2023-11-21T02:48:28;12.20;61.80
18287;DHT22;9269;50.838;12.094;2023-11-21T02:50:58;12.20;62.20
18287;DHT22;9269;50.838;12.094;2023-11-21T02:53:26;12.10;61.70
18287;DHT22;9269;50.838;12.094;2023-11-21T02:55:54;12.20;62.10
18287;DHT22;9269;50.838;12.094;2023-11-21T02:58:24;12.20;62.00
18287;DHT22;9269;50.838;12.094;2023-11-21T03:00:53;12.10;62.00
18287;DHT22;9269;50.838;12.094;2023-11-21T03:03:21;12.10;62.10
18287;DHT22;9269;50.838;12.094;2023-11-21T03:05:51;12.20;61.80
18287;DHT22;9269;50.838;12.094;2023-11-21T03:08:19;12.10;62.10
18287;DHT22;9269;50.838;12.094;2023-11-21T03:10:48;12.10;62.00
18287;DHT22;9269;50.838;12.094;2023-11-21T03:13:16;12.10;61.90
18287;DHT22;9269;50.838;12.094;2023-11-21T03:15:46;12.10;61.90
18287;DHT22;9269;50.838;12.094;2023-11-21T03:18:15;12.00;62.40
18287;DHT22;9269;50.838;12.094;2023-11-21T03:20:43;12.10;61.90
18287;DHT22;9269;50.838;12.094;2023-11-21T03:23:13;12.10;62.20
18287;DHT22;9269;50.838;12.094;2023-11-21T03:25:42;11.90;62.00
18287;DHT22;9269;50.838;12.094;2023-11-21T03:28:11;12.10;62.20
18287;DHT22;9269;50.838;12.094;2023-11-21T03:30:40;12.20;62.20
18287;DHT22;9269;50.838;12.094;2023-11-21T03:33:09;12.00;62.10
18287;DHT22;9269;50.838;12.094;2023-11-21T03:35:38;12.20;62.10
18287;DHT22;9269;50.838;12.094;2023-11-21T03:38:10;12.10;62.30
18287;DHT22;9269;50.838;12.094;2023-11-21T03:40:39;12.20;62.20
18287;DHT22;9269;50.838;12.094;2023-11-21T03:43:08;12.10;61.90
18287;DHT22;9269;50.838;12.094;2023-11-21T03:45:39;12.10;62.10
18287;DHT22;9269;50.838;12.094;2023-11-21T03:48:09;12.00;62.00
18287;DHT22;9269;50.838;12.094;2023-11-21T03:50:40;12.00;61.80
18287;DHT22;9269;50.838;12.094;2023-11-21T03:53:09;12.10;62.20
18287;DHT22;9269;50.838;12.094;2023-11-21T03:55:37;12.10;62.00
18287;DHT22;9269;50.838;12.094;2023-11-21T03:58:06;12.00;62.20
18287;DHT22;9269;50.838;12.094;2023-11-21T04:00:35;12.10;61.80
18287;DHT22;9269;50.838;12.094;2023-11-21T04:03:04;12.10;62.30
18287;DHT22;9269;50.838;12.094;2023-11-21T04:05:34;12.00;62.00
18287;DHT22;9269;50.838;12.094;2023-11-21T04:08:03;12.10;62.20
18287;DHT22;9269;50.838;12.094;2023-11-21T04:10:32;12.10;62.20
18287;DHT22;9269;50.838;12.094;2023-11-21T04:13:02;12.10;62.10
18287;DHT22;9269;50.838;12.094;2023-11-21T04:15:30;12.00;62.30
18287;DHT22;9269;50.838;12.094;2023-11-21T04:17:58;12.00;62.20
18287;DHT22;9269;50.838;12.094;2023-11-21T04:20:27;12.10;62.20
18287;DHT22;9269;50.838;12.094;2023-11-21T04:22:59;12.10;62.00
18287;DHT22;9269;50.838;12.094;2023-11-21T04:25:27;12.10;62.10
18287;DHT22;9269;50.838;12.094;2023-11-21T04:27:56;12.10;62.10
18287;DHT22;9269;50.838;12.094;2023-11-21T04:30:24;12.10;62.30
18287;DHT22;9269;50.838;12.094;2023-11-21T04:32:52;12.10;62.20
18287;DHT22;9269;50.838;12.094;2023-11-21T04:35:21;12.10;62.00
18287;DHT22;9269;50.838;12.094;2023-11-21T04:37:50;11.90;62.40
18287;DHT22;9269;50.838;12.094;2023-11-21T04:40:21;12.00;62.30
18287;DHT22;9269;50.838;12.094;2023-11-21T04:42:53;12.00;62.40
18287;DHT22;9269;50.838;12.094;2023-11-21T04:45:21;12.10;62.30
18287;DHT22;9269;50.838;12.094;2023-11-21T04:47:50;11.90;62.40
18287;DHT22;9269;50.838;12.094;2023-11-21T04:50:20;11.90;62.20
18287;DHT22;9269;50.838;12.094;2023-11-21T04:52:48;12.00;62.60
18287;DHT22;9269;50.838;12.094;2023-11-21T04:55:17;12.00;62.40
18287;DHT22;9269;50.838;12.094;2023-11-21T04:57:46;11.90;62.70
18287;DHT22;9269;50.838;12.094;2023-11-21T05:00:15;11.90;62.60
18287;DHT22;9269;50.838;12.094;2023-11-21T05:02:44;12.00;62.50
18287;DHT22;9269;50.838;12.094;2023-11-21T05:05:13;12.00;62.30
18287;DHT22;9269;50.838;12.094;2023-11-21T05:07:41;11.90;62.30
18287;DHT22;9269;50.838;12.094;2023-11-21T05:10:10;11.90;63.00
18287;DHT22;9269;50.838;12.094;2023-11-21T05:12:42;11.90;62.60
18287;DHT22;9269;50.838;12.094;2023-11-21T05:15:14;11.90;62.60
18287;DHT22;9269;50.838;12.094;2023-11-21T05:17:43;11.90;62.70
18287;DHT22;9269;50.838;12.094;2023-11-21T05:20:14;11.70;62.40
18287;DHT22;9269;50.838;12.094;2023-11-21T05:22:45;11.70;62.70
18287;DHT22;9269;50.838;12.094;2023-11-21T05:25:14;11.60;62.50
18287;DHT22;9269;50.838;12.094;2023-11-21T05:27:45;11.60;62.60
18287;DHT22;9269;50.838;12.094;2023-11-21T05:30:15;11.50;62.60
18287;DHT22;9269;50.838;12.094;2023-11-21T05:32:44;11.50;63.00
18287;DHT22;9269;50.838;12.094;2023-11-21T05:35:14;11.50;62.70
18287;DHT22;9269;50.838;12.094;2023-11-21T05:37:44;11.30;63.20
18287;DHT22;9269;50.838;12.094;2023-11-21T05:40:14;11.30;62.50
18287;DHT22;9269;50.838;12.094;2023-11-21T05:42:44;11.30;63.00
18287;DHT22;9269;50.838;12.094;2023-11-21T05:45:12;11.30;62.70
18287;DHT22;9269;50.838;12.094;2023-11-21T05:47:44;11.30;62.80
18287;DHT22;9269;50.838;12.094;2023-11-21T05:50:15;11.30;63.10
18287;DHT22;9269;50.838;12.094;2023-11-21T05:52:46;11.20;62.90
18287;DHT22;9269;50.838;12.094;2023-11-21T05:55:16;11.20;62.80
18287;DHT22;9269;50.838;12.094;2023-11-21T05:57:44;11.10;62.80
18287;DHT22;9269;50.838;12.094;2023-11-21T06:00:14;11.10;62.90
18287;DHT22;9269;50.838;12.094;2023-11-21T06:02:50;11.10;62.80
18287;DHT22;9269;50.838;12.094;2023-11-21T06:05:22;11.00;63.00
18287;DHT22;9269;50.838;12.094;2023-11-21T06:08:12;11.00;62.70
18287;DHT22;9269;50.838;12.094;2023-11-21T06:10:41;11.00;62.70
18287;DHT22;9269;50.838;12.094;2023-11-21T06:13:12;10.90;62.50
18287;DHT22;9269;50.838;12.094;2023-11-21T06:15:42;10.90;62.60
18287;DHT22;9269;50.838;12.094;2023-11-21T06:18:12;10.90;62.70
18287;DHT22;9269;50.838;12.094;2023-11-21T06:20:42;10.80;62.40
18287;DHT22;9269;50.838;12.094;2023-11-21T06:23:10;10.80;62.70
18287;DHT22;9269;50.838;12.094;2023-11-21T06:25:39;10.80;62.50
18287;DHT22;9269;50.838;12.094;2023-11-21T06:28:07;10.80;62.90
18287;DHT22;9269;50.838;12.094;2023-11-21T06:30:52;10.70;62.80
18287;DHT22;9269;50.838;12.094;2023-11-21T06:33:22;10.70;62.70
18287;DHT22;9269;50.838;12.094;2023-11-21T06:35:51;10.70;62.50
18287;DHT22;9269;50.838;12.094;2023-11-21T06:38:21;10.70;62.90
18287;DHT22;9269;50.838;12.094;2023-11-21T06:40:50;10.70;62.50
18287;DHT22;9269;50.838;12.094;2023-11-21T06:43:20;10.70;62.40
18287;DHT22;9269;50.838;12.094;2023-11-21T06:45:50;10.60;62.20
18287;DHT22;9269;50.838;12.094;2023-11-21T06:48:19;10.70;62.70
18287;DHT22;9269;50.838;12.094;2023-11-21T06:50:49;10.60;62.30
18287;DHT22;9269;50.838;12.094;2023-11-21T06:53:19;10.60;62.60
18287;DHT22;9269;50.838;12.094;2023-11-21T06:55:47;10.60;62.30
18287;DHT22;9269;50.838;12.094;2023-11-21T06:58:16;10.60;62.50
18287;DHT22;9269;50.838;12.094;2023-11-21T07:00:44;10.60;62.40
18287;DHT22;9269;50.838;12.094;2023-11-21T07:03:19;10.60;62.50
18287;DHT22;9269;50.838;12.094;2023-11-21T07:05:49;10.60;62.20
18287;DHT22;9269;50.838;12.094;2023-11-21T07:08:17;10.70;62.10
18287;DHT22;9269;50.838;12.094;2023-11-21T07:10:46;10.70;62.20
18287;DHT22;9269;50.838;12.094;2023-11-21T07:13:15;10.70;62.20
18287;DHT22;9269;50.838;12.094;2023-11-21T07:15:43;10.80;62.40
18287;DHT22;9269;50.838;12.094;2023-11-21T07:18:12;10.80;62.40
18287;DHT22;9269;50.838;12.094;2023-11-21T07:20:40;10.80;62.60
18287;DHT22;9269;50.838;12.094;2023-11-21T07:23:10;10.90;62.70
18287;DHT22;9269;50.838;12.094;2023-11-21T07:25:39;10.90;63.10
18287;DHT22;9269;50.838;12.094;2023-11-21T07:28:09;10.80;62.90
18287;DHT22;9269;50.838;12.094;2023-11-21T07:30:37;10.90;63.00
18287;DHT22;9269;50.838;12.094;2023-11-21T07:33:06;10.90;63.00
18287;DHT22;9269;50.838;12.094;2023-11-21T07:35:35;11.00;63.10
18287;DHT22;9269;50.838;12.094;2023-11-21T07:38:04;11.00;63.00
18287;DHT22;9269;50.838;12.094;2023-11-21T07:40:33;11.10;63.30
18287;DHT22;9269;50.838;12.094;2023-11-21T07:43:02;11.20;63.40
18287;DHT22;9269;50.838;12.094;2023-11-21T07:45:31;11.10;63.00
18287;DHT22;9269;50.838;12.094;2023-11-21T07:48:00;11.00;63.60
18287;DHT22;9269;50.838;12.094;2023-11-21T07:50:30;11.10;63.20
18287;DHT22;9269;50.838;12.094;2023-11-21T07:52:59;11.10;63.40
18287;DHT22;9269;50.838;12.094;2023-11-21T07:55:33;11.10;63.60
18287;DHT22;9269;50.838;12.094;2023-11-21T07:58:01;11.20;63.10
18287;DHT22;9269;50.838;12.094;2023-11-21T08:00:31;11.30;63.10
18287;DHT22;9269;50.838;12.094;2023-11-21T08:03:00;11.20;63.50
18287;DHT22;9269;50.838;12.094;2023-11-21T08:05:29;11.20;63.40
18287;DHT22;9269;50.838;12.094;2023-11-21T08:08:23;11.20;63.80
18287;DHT22;9269;50.838;12.094;2023-11-21T08:10:54;11.20;63.30
18287;DHT22;9269;50.838;12.094;2023-11-21T08:13:42;11.30;63.50
18287;DHT22;9269;50.838;12.094;2023-11-21T08:16:11;11.30;63.90
18287;DHT22;9269;50.838;12.094;2023-11-21T08:18:41;11.20;63.30
18287;DHT22;9269;50.838;12.094;2023-11-21T08:21:12;11.40;63.20
18287;DHT22;9269;50.838;12.094;2023-11-21T08:23:41;11.40;63.20
18287;DHT22;9269;50.838;12.094;2023-11-21T08:26:12;11.40;63.20
18287;DHT22;9269;50.838;12.094;2023-11-21T08:28:41;11.40;63.30
18287;DHT22;9269;50.838;12.094;2023-11-21T08:31:09;11.50;63.70
18287;DHT22;9269;50.838;12.094;2023-11-21T08:33:40;11.50;63.50
18287;DHT22;9269;50.838;12.094;2023-11-21T08:36:10;11.40;63.40
18287;DHT22;9269;50.838;12.094;2023-11-21T08:38:39;11.50;63.30
18287;DHT22;9269;50.838;12.094;2023-11-21T08:41:08;11.50;63.50
18287;DHT22;9269;50.838;12.094;2023-11-21T08:43:39;11.50;63.60
18287;DHT22;9269;50.838;12.094;2023-11-21T08:46:09;11.60;63.60
18287;DHT22;9269;50.838;12.094;2023-11-21T08:48:37;11.50;63.60
18287;DHT22;9269;50.838;12.094;2023-11-21T08:51:06;11.50;63.60
18287;DHT22;9269;50.838;12.094;2023-11-21T08:53:54;11.60;63.80
18287;DHT22;9269;50.838;12.094;2023-11-21T08:56:27;11.50;63.80
18287;DHT22;9269;50.838;12.094;2023-11-21T08:58:57;11.50;63.60
18287;DHT22;9269;50.838;12.094;2023-11-21T09:01:27;11.60;63.70
18287;DHT22;9269;50.838;12.094;2023-11-21T09:03:59;11.60;63.60
18287;DHT22;9269;50.838;12.094;2023-11-21T09:06:27;11.80;63.80
18287;DHT22;9269;50.838;12.094;2023-11-21T09:08:56;11.70;63.50
18287;DHT22;9269;50.838;12.094;2023-11-21T09:11:25;11.80;63.90
18287;DHT22;9269;50.838;12.094;2023-11-21T09:14:00;11.70;63.60
18287;DHT22;9269;50.838;12.094;2023-11-21T09:16:48;11.80;63.80
18287;DHT22;9269;50.838;12.094;2023-11-21T09:19:18;11.70;64.10
18287;DHT22;9269;50.838;12.094;2023-11-21T09:21:47;11.70;64.10
18287;DHT22;9269;50.838;12.094;2023-11-21T09:24:16;11.80;63.90
18287;DHT22;9269;50.838;12.094;2023-11-21T09:26:45;11.70;64.40
18287;DHT22;9269;50.838;12.094;2023-11-21T09:29:16;11.80;63.80
18287;DHT22;9269;50.838;12.094;2023-11-21T09:31:47;11.70;64.10
18287;DHT22;9269;50.838;12.094;2023-11-21T09:34:19;11.80;64.10
18287;DHT22;9269;50.838;12.094;2023-11-21T09:36:48;11.70;64.40
18287;DHT22;9269;50.838;12.094;2023-11-21T09:39:17;11.70;70.70
18287;DHT22;9269;50.838;12.094;2023-11-21T09:41:50;11.80;70.70
18287;DHT22;9269;50.838;12.094;2023-11-21T09:44:30;11.60;64.30
18287;DHT22;9269;50.838;12.094;2023-11-21T09:47:02;11.80;64.40
18287;DHT22;9269;50.838;12.094;2023-11-21T09:49:33;11.80;70.80
18287;DHT22;9269;50.838;12.094;2023-11-21T09:52:04;11.80;64.10
18287;DHT22;9269;50.838;12.094;2023-11-21T09:54:36;11.80;70.70
18287;DHT22;9269;50.838;12.094;2023-11-21T09:57:05;11.90;70.70
18287;DHT22;9269;50.838;12.094;2023-11-21T09:59:36;11.90;64.20
18287;DHT22;9269;50.838;12.094;2023-11-21T10:02:07;11.90;64.40
18287;DHT22;9269;50.838;12.094;2023-11-21T10:04:41;11.80;70.70
18287;DHT22;9269;50.838;12.094;2023-11-21T10:07:10;12.00;70.70
18287;DHT22;9269;50.838;12.094;2023-11-21T10:09:38;11.90;70.70
18287;DHT22;9269;50.838;12.094;2023-11-21T10:12:08;11.70;64.20
18287;DHT22;9269;50.838;12.094;2023-11-21T10:14:41;11.90;70.70
18287;DHT22;9269;50.838;12.094;2023-11-21T10:17:12;12.00;70.80
18287;DHT22;9269;50.838;12.094;2023-11-21T10:19:46;11.90;70.80
18287;DHT22;9269;50.838;12.094;2023-11-21T10:22:16;11.90;70.90
18287;DHT22;9269;50.838;12.094;2023-11-21T10:24:45;11.90;70.90
18287;DHT22;9269;50.838;12.094;2023-11-21T10:27:21;11.80;70.90
18287;DHT22;9269;50.838;12.094;2023-11-21T10:29:52;11.90;70.80
18287;DHT22;9269;50.838;12.094;2023-11-21T10:32:21;11.80;70.90
18287;DHT22;9269;50.838;12.094;2023-11-21T10:34:57;11.90;70.90
18287;DHT22;9269;50.838;12.094;2023-11-21T10:37:28;11.90;71.10
18287;DHT22;9269;50.838;12.094;2023-11-21T10:39:58;12.00;71.00
18287;DHT22;9269;50.838;12.094;2023-11-21T10:42:28;11.90;71.00
18287;DHT22;9269;50.838;12.094;2023-11-21T10:44:59;11.90;70.90
18287;DHT22;9269;50.838;12.094;2023-11-21T10:47:38;12.00;71.10
18287;DHT22;9269;50.838;12.094;2023-11-21T10:50:08;11.90;71.30
18287;DHT22;9269;50.838;12.094;2023-11-21T10:52:40;11.70;71.10
18287;DHT22;9269;50.838;12.094;2023-11-21T10:55:17;11.90;71.10
18287;DHT22;9269;50.838;12.094;2023-11-21T10:57:53;11.90;71.20
18287;DHT22;9269;50.838;12.094;2023-11-21T11:00:26;11.90;71.10
18287;DHT22;9269;50.838;12.094;2023-11-21T11:02:57;12.00;71.10
18287;DHT22;9269;50.838;12.094;2023-11-21T11:05:31;12.00;71.10
18287;DHT22;9269;50.838;12.094;2023-11-21T11:08:07;11.80;71.10
18287;DHT22;9269;50.838;12.094;2023-11-21T11:10:37;11.90;71.10
18287;DHT22;9269;50.838;12.094;2023-11-21T11:13:16;12.10;71.20
18287;DHT22;9269;50.838;12.094;2023-11-21T11:15:58;12.10;71.10
18287;DHT22;9269;50.838;12.094;2023-11-21T11:18:29;12.00;71.00
18287;DHT22;9269;50.838;12.094;2023-11-21T11:21:27;12.10;71.20
18287;DHT22;9269;50.838;12.094;2023-11-21T11:24:23;12.00;71.20
18287;DHT22;9269;50.838;12.094;2023-11-21T11:27:22;12.00;71.20
18287;DHT22;9269;50.838;12.094;2023-11-21T11:30:00;12.10;71.20
18287;DHT22;9269;50.838;12.094;2023-11-21T11:32:40;12.20;71.20
18287;DHT22;9269;50.838;12.094;2023-11-21T11:35:19;12.10;71.20
18287;DHT22;9269;50.838;12.094;2023-11-21T11:38:11;12.10;71.30
18287;DHT22;9269;50.838;12.094;2023-11-21T11:40:45;12.10;71.20
18287;DHT22;9269;50.838;12.094;2023-11-21T11:43:31;12.10;71.20
18287;DHT22;9269;50.838;12.094;2023-11-21T11:46:07;12.00;71.40
18287;DHT22;9269;50.838;12.094;2023-11-21T11:48:39;12.10;71.40
18287;DHT22;9269;50.838;12.094;2023-11-21T11:51:11;12.00;71.20
18287;DHT22;9269;50.838;12.094;2023-11-21T11:53:42;11.90;71.50
18287;DHT22;9269;50.838;12.094;2023-11-21T11:56:27;12.00;71.40
18287;DHT22;9269;50.838;12.094;2023-11-21T11:58:59;11.90;71.40
18287;DHT22;9269;50.838;12.094;2023-11-21T12:01:33;11.90;71.50
18287;DHT22;9269;50.838;12.094;2023-11-21T12:04:24;12.00;71.40
18287;DHT22;9269;50.838;12.094;2023-11-21T12:07:02;12.00;71.40
18287;DHT22;9269;50.838;12.094;2023-11-21T12:09:31;11.90;71.60
18287;DHT22;9269;50.838;12.094;2023-11-21T12:12:00;11.90;71.50
18287;DHT22;9269;50.838;12.094;2023-11-21T12:14:31;11.90;71.40
18287;DHT22;9269;50.838;12.094;2023-11-21T12:16:59;11.90;71.50
18287;DHT22;9269;50.838;12.094;2023-11-21T12:19:31;12.00;71.60
18287;DHT22;9269;50.838;12.094;2023-11-21T12:22:01;11.80;71.60
18287;DHT22;9269;50.838;12.094;2023-11-21T12:24:30;11.80;71.70
18287;DHT22;9269;50.838;12.094;2023-11-21T12:26:59;11.80;71.50
18287;DHT22;9269;50.838;12.094;2023-11-21T12:29:28;11.90;71.60
18287;DHT22;9269;50.838;12.094;2023-11-21T12:31:57;11.80;71.60
18287;DHT22;9269;50.838;12.094;2023-11-21T12:34:25;11.90;71.70
18287;DHT22;9269;50.838;12.094;2023-11-21T12:36:56;11.90;71.70
18287;DHT22;9269;50.838;12.094;2023-11-21T12:39:24;11.90;71.40
18287;DHT22;9269;50.838;12.094;2023-11-21T12:41:53;11.90;71.50
18287;DHT22;9269;50.838;12.094;2023-11-21T12:44:21;11.90;71.60
18287;DHT22;9269;50.838;12.094;2023-11-21T12:46:51;11.90;71.50
18287;DHT22;9269;50.838;12.094;2023-11-21T12:49:20;11.80;71.60
18287;DHT22;9269;50.838;12.094;2023-11-21T12:51:49;11.70;71.60
18287;DHT22;9269;50.838;12.094;2023-11-21T12:54:20;11.60;71.60
18287;DHT22;9269;50.838;12.094;2023-11-21T12:56:49;11.50;71.60
18287;DHT22;9269;50.838;12.094;2023-11-21T12:59:17;11.50;71.50
18287;DHT22;9269;50.838;12.094;2023-11-21T13:01:49;11.50;71.60
18287;DHT22;9269;50.838;12.094;2023-11-21T13:04:18;11.50;71.60
18287;DHT22;9269;50.838;12.094;2023-11-21T13:06:47;11.40;71.70
18287;DHT22;9269;50.838;12.094;2023-11-21T13:09:16;11.40;71.50
18287;DHT22;9269;50.838;12.094;2023-11-21T13:11:50;11.20;71.50
18287;DHT22;9269;50.838;12.094;2023-11-21T13:14:30;11.30;71.50
18287;DHT22;9269;50.838;12.094;2023-11-21T13:17:01;11.30;71.50
18287;DHT22;9269;50.838;12.094;2023-11-21T13:19:33;11.20;71.50
18287;DHT22;9269;50.838;12.094;2023-11-21T13:22:04;11.20;71.50
18287;DHT22;9269;50.838;12.094;2023-11-21T13:24:36;11.20;71.60
18287;DHT22;9269;50.838;12.094;2023-11-21T13:27:09;11.20;71.40
18287;DHT22;9269;50.838;12.094;2023-11-21T13:29:38;11.00;71.20
18287;DHT22;9269;50.838;12.094;2023-11-21T13:32:07;11.00;71.30
18287;DHT22;9269;50.838;12.094;2023-11-21T13:34:39;11.00;71.30
18287;DHT22;9269;50.838;12.094;2023-11-21T13:37:15;10.90;71.40
18287;DHT22;9269;50.838;12.094;2023-11-21T13:39:46;10.80;71.30
18287;DHT22;9269;50.838;12.094;2023-11-21T13:42:25;10.80;71.20
18287;DHT22;9269;50.838;12.094;2023-11-21T13:44:56;10.80;71.20
18287;DHT22;9269;50.838;12.094;2023-11-21T13:47:24;10.70;71.30
18287;DHT22;9269;50.838;12.094;2023-11-21T13:49:57;10.80;71.30
18287;DHT22;9269;50.838;12.094;2023-11-21T13:52:27;10.70;71.40
18287;DHT22;9269;50.838;12.094;2023-11-21T13:55:00;10.80;71.30
18287;DHT22;9269;50.838;12.094;2023-11-21T13:57:34;10.70;71.40
18287;DHT22;9269;50.838;12.094;2023-11-21T14:00:03;10.70;71.30
18287;DHT22;9269;50.838;12.094;2023-11-21T14:02:38;10.60;71.20
18287;DHT22;9269;50.838;12.094;2023-11-21T14:05:13;10.70;71.30
18287;DHT22;9269;50.838;12.094;2023-11-21T14:07:50;10.70;71.30
18287;DHT22;9269;50.838;12.094;2023-11-21T14:10:20;10.70;71.30
18287;DHT22;9269;50.838;12.094;2023-11-21T14:12:52;10.60;71.40
18287;DHT22;9269;50.838;12.094;2023-11-21T14:15:21;10.70;71.30
18287;DHT22;9269;50.838;12.094;2023-11-21T14:17:49;10.60;71.30
18287;DHT22;9269;50.838;12.094;2023-11-21T14:20:18;10.60;71.20
18287;DHT22;9269;50.838;12.094;2023-11-21T14:22:48;10.60;71.40
18287;DHT22;9269;50.838;12.094;2023-11-21T14:25:16;10.70;71.20
18287;DHT22;9269;50.838;12.094;2023-11-21T14:27:46;10.60;71.50
18287;DHT22;9269;50.838;12.094;2023-11-21T14:30:16;10.50;71.40
18287;DHT22;9269;50.838;12.094;2023-11-21T14:32:46;10.50;71.30
18287;DHT22;9269;50.838;12.094;2023-11-21T14:35:20;10.50;71.10
18287;DHT22;9269;50.838;12.094;2023-11-21T14:37:52;10.30;71.10
18287;DHT22;9269;50.838;12.094;2023-11-21T14:40:20;10.30;71.10
18287;DHT22;9269;50.838;12.094;2023-11-21T14:42:51;10.20;71.10
18287;DHT22;9269;50.838;12.094;2023-11-21T14:45:25;10.20;71.00
18287;DHT22;9269;50.838;12.094;2023-11-21T14:47:57;10.20;71.10
18287;DHT22;9269;50.838;12.094;2023-11-21T14:50:35;10.10;71.10
18287;DHT22;9269;50.838;12.094;2023-11-21T14:53:16;10.00;70.90
18287;DHT22;9269;50.838;12.094;2023-11-21T14:55:56;9.90;71.00
18287;DHT22;9269;50.838;12.094;2023-11-21T14:58:27;9.90;70.90
18287;DHT22;9269;50.838;12.094;2023-11-21T15:01:16;9.90;70.90
18287;DHT22;9269;50.838;12.094;2023-11-21T15:03:54;9.80;70.80
18287;DHT22;9269;50.838;12.094;2023-11-21T15:06:22;9.80;70.80
18287;DHT22;9269;50.838;12.094;2023-11-21T15:08:57;9.70;64.30
18287;DHT22;9269;50.838;12.094;2023-11-21T15:11:44;9.70;70.80
18287;DHT22;9269;50.838;12.094;2023-11-21T15:14:13;9.60;64.40
18287;DHT22;9269;50.838;12.094;2023-11-21T15:16:51;9.60;64.20
18287;DHT22;9269;50.838;12.094;2023-11-21T15:19:44;9.50;64.30
18287;DHT22;9269;50.838;12.094;2023-11-21T15:22:12;9.40;64.10
18287;DHT22;9269;50.838;12.094;2023-11-21T15:24:43;9.30;63.60
18287;DHT22;9269;50.838;12.094;2023-11-21T15:27:14;9.30;63.40
18287;DHT22;9269;50.838;12.094;2023-11-21T15:29:43;9.30;63.60
18287;DHT22;9269;50.838;12.094;2023-11-21T15:32:14;9.20;63.70
18287;DHT22;9269;50.838;12.094;2023-11-21T15:34:42;9.20;63.20
18287;DHT22;9269;50.838;12.094;2023-11-21T15:37:12;9.30;63.60
18287;DHT22;9269;50.838;12.094;2023-11-21T15:39:41;9.20;63.20
18287;DHT22;9269;50.838;12.094;2023-11-21T15:42:10;9.10;63.30
18287;DHT22;9269;50.838;12.094;2023-11-21T15:44:38;9.20;63.60
18287;DHT22;9269;50.838;12.094;2023-11-21T15:47:10;9.10;63.50
18287;DHT22;9269;50.838;12.094;2023-11-21T15:49:40;9.20;63.60
18287;DHT22;9269;50.838;12.094;2023-11-21T15:52:11;9.10;62.90
18287;DHT22;9269;50.838;12.094;2023-11-21T15:54:41;9.10;63.20
18287;DHT22;9269;50.838;12.094;2023-11-21T15:57:13;9.10;63.00